createdAt,value
2019-03-03T00:00:46.787Z,100484.61
2019-03-03T00:03:17.817Z,100481.31
2019-03-03T00:05:49.840Z,100481.52
2019-03-03T00:08:20.813Z,100479.59
2019-03-03T00:10:51.779Z,100483.88
2019-03-03T00:13:22.798Z,100489.92
2019-03-03T00:15:53.770Z,100488.57
2019-03-03T00:18:24.701Z,100495.95
2019-03-03T00:21:12.502Z,100495.95
2019-03-03T00:23:45.035Z,100503.41
2019-03-03T00:26:15.919Z,100497.70
2019-03-03T00:28:46.861Z,100498.97
2019-03-03T00:31:18.851Z,100496.81
2019-03-03T00:33:50.781Z,100500.73
2019-03-03T00:36:21.888Z,100500.63
2019-03-03T00:38:57.465Z,100508.12
2019-03-03T00:41:39.202Z,100500.12
2019-03-03T00:44:11.784Z,100490.79
2019-03-03T00:46:44.335Z,100490.56
2019-03-03T00:49:33.119Z,100496.88
2019-03-03T00:52:05.672Z,100502.98
2019-03-03T00:54:38.254Z,100501.64
2019-03-03T00:57:10.839Z,100506.44
2019-03-03T00:59:58.693Z,100508.61
2019-03-03T01:02:37.235Z,100502.46
2019-03-03T01:05:10.258Z,100510.09
2019-03-03T01:07:42.884Z,100517.38
2019-03-03T01:10:27.393Z,100506.40
2019-03-03T01:13:01.041Z,100513.25
2019-03-03T01:15:51.617Z,100515.59
2019-03-03T01:18:39.224Z,100513.12
2019-03-03T01:21:27.885Z,100514.22
2019-03-03T01:24:03.360Z,100516.48
2019-03-03T01:26:34.295Z,100516.68
2019-03-03T01:29:06.834Z,100519.20
2019-03-03T01:31:37.799Z,100517.50
2019-03-03T01:34:09.630Z,100513.55
2019-03-03T01:36:40.822Z,100515.84
2019-03-03T01:39:11.782Z,100512.80
2019-03-03T01:41:42.826Z,100514.07
2019-03-03T01:44:13.771Z,100509.34
2019-03-03T01:46:44.787Z,100511.19
2019-03-03T01:49:15.775Z,100507.91
2019-03-03T01:51:46.786Z,100498.28
2019-03-03T01:54:17.706Z,100506.96
2019-03-03T01:56:48.720Z,100509.56
2019-03-03T01:59:19.707Z,100508.80
2019-03-03T02:01:51.093Z,100505.71
2019-03-03T02:04:22.177Z,100507.80
2019-03-03T02:06:53.577Z,100504.13
2019-03-03T02:09:24.663Z,100512.51
2019-03-03T02:11:57.095Z,100510.72
2019-03-03T02:14:28.540Z,100508.55
2019-03-03T02:16:59.816Z,100517.78
2019-03-03T02:19:31.130Z,100510.19
2019-03-03T02:22:03.299Z,100515.09
2019-03-03T02:24:34.230Z,100516.27
2019-03-03T02:27:05.202Z,100513.36
2019-03-03T02:29:36.113Z,100512.51
2019-03-03T02:32:07.151Z,100504.78
2019-03-03T02:34:38.880Z,100509.43
2019-03-03T02:37:10.002Z,100517.58
2019-03-03T02:39:40.909Z,100514.34
2019-03-03T02:42:11.948Z,100520.62
2019-03-03T02:44:42.892Z,100523.26
2019-03-03T02:47:13.913Z,100524.52
2019-03-03T02:49:44.864Z,100531.60
2019-03-03T02:52:15.993Z,100538.64
2019-03-03T02:54:46.951Z,100529.93
2019-03-03T02:57:17.911Z,100527.27
2019-03-03T02:59:48.918Z,100530.73
2019-03-03T03:02:21.620Z,100535.48
2019-03-03T03:04:52.495Z,100523.03
2019-03-03T03:07:25.280Z,100516.96
2019-03-03T03:10:00.982Z,100515.23
2019-03-03T03:12:33.748Z,100511.14
2019-03-03T03:15:07.287Z,100515.50
2019-03-03T03:17:39.935Z,100516.39
2019-03-03T03:20:28.777Z,100521.50
2019-03-03T03:23:01.440Z,100511.53
2019-03-03T03:25:43.182Z,100504.80
2019-03-03T03:28:15.892Z,100508.34
2019-03-03T03:30:48.452Z,100507.27
2019-03-03T03:33:21.044Z,100504.09
2019-03-03T03:36:12.526Z,100508.45
2019-03-03T03:38:48.015Z,100510.11
2019-03-03T03:41:23.681Z,100506.48
2019-03-03T03:43:59.182Z,100509.06
2019-03-03T03:46:48.080Z,100512.14
2019-03-03T03:49:29.258Z,100513.02
2019-03-03T03:52:07.821Z,100507.53
2019-03-03T03:54:43.417Z,100510.56
2019-03-03T03:57:21.735Z,100507.05
2019-03-03T03:59:54.356Z,100514.72
2019-03-03T04:02:43.291Z,100519.30
2019-03-03T04:05:18.915Z,100523.59
2019-03-03T04:07:51.508Z,100518.70
2019-03-03T04:10:24.129Z,100512.23
2019-03-03T04:12:56.679Z,100514.59
2019-03-03T04:15:29.305Z,100501.06
2019-03-03T04:18:01.874Z,100502.80
2019-03-03T04:20:34.466Z,100502.47
2019-03-03T04:23:16.097Z,100503.24
2019-03-03T04:25:57.812Z,100504.83
2019-03-03T04:28:33.338Z,100506.42
2019-03-03T04:31:05.939Z,100492.09
2019-03-03T04:33:38.478Z,100492.14
2019-03-03T04:36:27.484Z,100487.69
2019-03-03T04:39:15.104Z,100492.57
2019-03-03T04:41:47.722Z,100491.91
2019-03-03T04:44:20.274Z,100484.63
2019-03-03T04:46:55.642Z,100475.06
2019-03-03T04:49:44.569Z,100472.06
2019-03-03T04:52:17.156Z,100470.84
2019-03-03T04:54:58.836Z,100467.91
2019-03-03T04:57:43.495Z,100477.09
2019-03-03T05:00:21.871Z,100471.84
2019-03-03T05:03:09.282Z,100479.09
2019-03-03T05:05:50.679Z,100482.16
2019-03-03T05:08:35.225Z,100486.02
2019-03-03T05:11:07.865Z,100482.30
2019-03-03T05:13:43.386Z,100474.55
2019-03-03T05:16:34.449Z,100474.55
2019-03-03T05:19:07.025Z,100470.26
2019-03-03T05:21:38.028Z,100476.72
2019-03-03T05:24:08.959Z,100478.70
2019-03-03T05:26:39.867Z,100475.89
2019-03-03T05:29:10.836Z,100476.33
2019-03-03T05:31:41.798Z,100476.55
2019-03-03T05:34:12.726Z,100468.86
2019-03-03T05:36:44.466Z,100470.91
2019-03-03T05:39:15.480Z,100472.92
2019-03-03T05:41:46.487Z,100473.20
2019-03-03T05:44:17.468Z,100472.77
2019-03-03T05:46:48.557Z,100472.44
2019-03-03T05:49:20.594Z,100476.08
2019-03-03T05:51:51.712Z,100471.52
2019-03-03T05:54:22.819Z,100477.69
2019-03-03T05:56:54.787Z,100477.05
2019-03-03T05:59:25.748Z,100478.11
2019-03-03T06:01:56.677Z,100476.63
2019-03-03T06:04:27.635Z,100482.72
2019-03-03T06:06:58.634Z,100476.91
2019-03-03T06:09:29.680Z,100481.09
2019-03-03T06:12:00.616Z,100481.60
2019-03-03T06:14:31.680Z,100479.77
2019-03-03T06:17:02.612Z,100486.36
2019-03-03T06:19:33.563Z,100482.69
2019-03-03T06:22:04.624Z,100482.06
2019-03-03T06:24:35.602Z,100479.10
2019-03-03T06:27:06.517Z,100483.80
2019-03-03T06:29:37.465Z,100489.61
2019-03-03T06:32:08.414Z,100494.48
2019-03-03T06:34:39.450Z,100488.59
2019-03-03T06:37:11.254Z,100487.72
2019-03-03T06:39:42.332Z,100490.05
2019-03-03T06:42:13.261Z,100488.73
2019-03-03T06:44:44.229Z,100486.20
2019-03-03T06:47:15.151Z,100493.78
2019-03-03T06:49:46.337Z,100492.21
2019-03-03T06:52:18.385Z,100493.77
2019-03-03T06:54:49.475Z,100494.73
2019-03-03T06:57:20.409Z,100501.23
2019-03-03T06:59:51.392Z,100500.25
2019-03-03T07:02:22.330Z,100502.86
2019-03-03T07:04:53.286Z,100502.97
2019-03-03T07:07:24.201Z,100506.23
2019-03-03T07:09:55.169Z,100499.55
2019-03-03T07:12:26.243Z,100497.41
2019-03-03T07:14:57.197Z,100499.33
2019-03-03T07:17:28.184Z,100488.23
2019-03-03T07:20:00.318Z,100488.78
2019-03-03T07:22:31.352Z,100490.34
2019-03-03T07:25:02.338Z,100487.32
2019-03-03T07:27:33.414Z,100473.52
2019-03-03T07:30:06.441Z,100478.80
2019-03-03T07:32:39.113Z,100471.30
2019-03-03T07:35:10.246Z,100465.25
2019-03-03T07:37:42.338Z,100456.27
2019-03-03T07:40:13.479Z,100458.83
2019-03-03T07:42:44.413Z,100459.27
2019-03-03T07:45:15.830Z,100468.46
2019-03-03T07:47:46.968Z,100458.95
2019-03-03T07:50:17.927Z,100472.89
2019-03-03T07:52:48.865Z,100465.88
2019-03-03T07:55:20.027Z,100466.69
2019-03-03T07:57:50.959Z,100464.95
2019-03-03T08:00:21.931Z,100453.13
2019-03-03T08:02:52.876Z,100451.84
2019-03-03T08:05:23.829Z,100447.94
2019-03-03T08:07:54.854Z,100437.91
2019-03-03T08:10:25.873Z,100433.20
2019-03-03T08:12:56.916Z,100433.64
2019-03-03T08:15:28.081Z,100426.20
2019-03-03T08:17:59.185Z,100424.88
2019-03-03T08:20:30.150Z,100420.02
2019-03-03T08:23:01.057Z,100417.39
2019-03-03T08:25:32.088Z,100419.58
2019-03-03T08:28:03.068Z,100411.66
2019-03-03T08:30:34.226Z,100413.45
2019-03-03T08:33:05.319Z,100401.64
2019-03-03T08:35:36.316Z,100405.12
2019-03-03T08:38:08.037Z,100402.97
2019-03-03T08:40:39.215Z,100393.36
2019-03-03T08:43:17.524Z,100387.25
2019-03-03T08:46:02.072Z,100381.89
2019-03-03T08:48:34.773Z,100372.75
2019-03-03T08:51:19.415Z,100366.95
2019-03-03T08:53:55.015Z,100367.90
2019-03-03T08:56:45.642Z,100367.94
2019-03-03T08:59:18.344Z,100360.94
2019-03-03T09:01:56.590Z,100348.43
2019-03-03T09:04:45.942Z,100344.11
2019-03-03T09:07:35.315Z,100350.47
2019-03-03T09:10:25.239Z,100344.98
2019-03-03T09:12:52.474Z,100351.25
2019-03-03T09:15:27.781Z,100351.45
2019-03-03T09:18:00.577Z,100343.55
2019-03-03T09:20:58.419Z,100341.26
2019-03-03T09:23:36.779Z,100337.05
2019-03-03T09:26:11.999Z,100344.89
2019-03-03T09:28:47.235Z,100338.48
2019-03-03T09:31:25.870Z,100336.70
2019-03-03T09:34:14.761Z,100334.03
2019-03-03T09:36:50.225Z,100331.39
2019-03-03T09:39:25.384Z,100330.77
2019-03-03T09:42:14.672Z,100323.98
2019-03-03T09:44:47.273Z,100316.42
2019-03-03T09:47:25.892Z,100321.17
2019-03-03T09:50:16.796Z,100309.66
2019-03-03T09:52:49.345Z,100322.89
2019-03-03T09:55:33.764Z,100316.23
2019-03-03T09:58:18.046Z,100315.71
2019-03-03T10:01:05.950Z,100322.96
2019-03-03T10:03:41.053Z,100316.28
2019-03-03T10:06:13.571Z,100325.61
2019-03-03T10:08:55.089Z,100333.16
2019-03-03T10:11:45.157Z,100331.56
2019-03-03T10:14:17.734Z,100325.42
2019-03-03T10:16:50.309Z,100328.09
2019-03-03T10:19:28.831Z,100326.00
2019-03-03T10:22:01.548Z,100321.98
2019-03-03T10:24:40.373Z,100326.06
2019-03-03T10:27:13.155Z,100319.48
2019-03-03T10:29:52.047Z,100302.82
2019-03-03T10:32:24.663Z,100302.41
2019-03-03T10:34:57.221Z,100296.58
2019-03-03T10:37:29.829Z,100282.06
2019-03-03T10:40:03.425Z,100282.06
2019-03-03T10:42:44.296Z,100280.34
2019-03-03T10:45:19.614Z,100281.74
2019-03-03T10:47:52.325Z,100296.59
2019-03-03T10:50:43.312Z,100289.77
2019-03-03T10:53:22.048Z,100289.72
2019-03-03T10:55:54.589Z,100293.52
2019-03-03T10:58:39.532Z,100292.37
2019-03-03T11:01:25.322Z,100282.45
2019-03-03T11:03:58.226Z,100281.60
2019-03-03T11:06:30.758Z,100272.13
2019-03-03T11:09:09.251Z,100269.40
2019-03-03T11:11:41.980Z,100265.38
2019-03-03T11:14:25.063Z,100272.76
2019-03-03T11:16:58.571Z,100272.25
2019-03-03T11:19:43.789Z,100262.24
2019-03-03T11:22:19.097Z,100264.91
2019-03-03T11:25:00.513Z,100273.92
2019-03-03T11:27:42.253Z,100259.11
2019-03-03T11:30:33.155Z,100237.45
2019-03-03T11:33:22.459Z,100229.41
2019-03-03T11:36:11.298Z,100219.61
2019-03-03T11:39:00.614Z,100224.64
2019-03-03T11:41:35.686Z,100202.71
2019-03-03T11:44:08.547Z,100208.30
2019-03-03T11:46:43.871Z,100203.58
2019-03-03T11:49:22.318Z,100205.77
2019-03-03T11:52:13.133Z,100209.55
2019-03-03T11:54:57.397Z,100199.88
2019-03-03T11:57:33.050Z,100211.24
2019-03-03T12:00:17.888Z,100203.06
2019-03-03T12:02:59.662Z,100200.97
2019-03-03T12:05:32.345Z,100196.19
2019-03-03T12:08:05.038Z,100183.94
2019-03-03T12:10:40.445Z,100185.23
2019-03-03T12:13:14.544Z,100177.55
2019-03-03T12:15:53.206Z,100175.10
2019-03-03T12:18:40.535Z,100168.28
2019-03-03T12:21:15.914Z,100158.54
2019-03-03T12:23:48.508Z,100154.47
2019-03-03T12:26:36.448Z,100150.89
2019-03-03T12:29:25.290Z,100149.92
2019-03-03T12:32:03.696Z,100144.56
2019-03-03T12:34:39.119Z,100136.92
2019-03-03T12:37:27.918Z,100133.78
2019-03-03T12:40:09.485Z,100136.14
2019-03-03T12:42:59.251Z,100122.06
2019-03-03T12:45:47.057Z,100125.86
2019-03-03T12:48:29.043Z,100119.20
2019-03-03T12:51:01.667Z,100116.56
2019-03-03T12:53:37.100Z,100113.16
2019-03-03T12:56:12.828Z,100106.86
2019-03-03T12:59:01.397Z,100102.72
2019-03-03T13:01:34.016Z,100104.47
2019-03-03T13:04:12.474Z,100116.50
2019-03-03T13:06:45.215Z,100095.58
2019-03-03T13:09:17.920Z,100098.33
2019-03-03T13:12:06.734Z,100077.69
2019-03-03T13:14:39.354Z,100066.45
2019-03-03T13:17:11.952Z,100058.64
2019-03-03T13:19:44.495Z,100058.64
2019-03-03T13:22:17.102Z,100062.94
2019-03-03T13:25:05.762Z,100071.55
2019-03-03T13:27:38.417Z,100062.34
2019-03-03T13:30:31.637Z,100048.03
2019-03-03T13:33:20.482Z,100043.72
2019-03-03T13:35:53.135Z,100046.94
2019-03-03T13:38:25.804Z,100039.92
2019-03-03T13:41:01.298Z,100025.95
2019-03-03T13:43:34.366Z,100020.41
2019-03-03T13:46:05.551Z,100025.47
2019-03-03T13:48:36.492Z,100024.31
2019-03-03T13:51:07.453Z,100022.08
2019-03-03T13:53:38.581Z,100014.70
2019-03-03T13:56:09.622Z,100009.87
2019-03-03T13:58:40.676Z,100019.20
2019-03-03T14:01:11.570Z,100021.75
2019-03-03T14:03:42.580Z,100016.42
2019-03-03T14:06:13.491Z,100018.40
2019-03-03T14:08:44.455Z,100012.19
2019-03-03T14:11:15.458Z,100023.30
2019-03-03T14:13:46.463Z,100012.47
2019-03-03T14:16:17.458Z,100010.83
2019-03-03T14:18:48.409Z,100003.91
2019-03-03T14:21:19.404Z,99993.07
2019-03-03T14:23:50.368Z,99991.16
2019-03-03T14:26:21.153Z,99992.43
2019-03-03T14:28:51.967Z,99985.84
2019-03-03T14:31:22.773Z,99984.05
2019-03-03T14:33:53.622Z,99984.65
2019-03-03T14:36:24.455Z,99991.34
2019-03-03T14:38:55.369Z,99979.83
2019-03-03T14:41:26.207Z,99975.17
2019-03-03T14:43:58.043Z,99972.39
2019-03-03T14:46:29.095Z,99975.89
2019-03-03T14:48:59.928Z,99974.66
2019-03-03T14:51:30.769Z,99979.00
2019-03-03T14:54:01.630Z,99972.40
2019-03-03T14:56:32.431Z,99976.08
2019-03-03T14:59:03.351Z,99976.45
2019-03-03T15:01:34.354Z,99962.84
2019-03-03T15:04:05.519Z,99963.70
2019-03-03T15:06:36.613Z,99960.33
2019-03-03T15:09:09.304Z,99969.21
2019-03-03T15:11:40.514Z,99968.34
2019-03-03T15:14:11.668Z,99962.37
2019-03-03T15:16:42.477Z,99954.64
2019-03-03T15:19:33.092Z,99956.19
2019-03-03T15:22:04.270Z,99955.82
2019-03-03T15:24:35.415Z,99948.36
2019-03-03T15:27:06.524Z,99964.00
2019-03-03T15:29:37.495Z,99968.42
2019-03-03T15:32:08.505Z,99966.27
2019-03-03T15:34:40.693Z,99966.81
2019-03-03T15:37:13.567Z,99964.80
2019-03-03T15:39:44.530Z,99967.67
2019-03-03T15:42:15.377Z,99967.42
2019-03-03T15:44:47.168Z,99970.98
2019-03-03T15:47:18.232Z,99966.98
2019-03-03T15:49:49.115Z,99961.91
2019-03-03T15:52:20.049Z,99958.81
2019-03-03T15:54:50.946Z,99955.77
2019-03-03T15:57:21.767Z,99952.38
2019-03-03T15:59:52.669Z,99949.48
2019-03-03T16:02:23.559Z,99942.41
2019-03-03T16:04:54.407Z,99937.09
2019-03-03T16:07:25.336Z,99941.50
2019-03-03T16:09:56.189Z,99938.41
2019-03-03T16:12:27.087Z,99936.59
2019-03-03T16:14:58.026Z,99939.88
2019-03-03T16:17:28.840Z,99922.63
2019-03-03T16:20:00.846Z,99933.13
2019-03-03T16:22:32.894Z,99932.34
2019-03-03T16:25:04.351Z,99938.03
2019-03-03T16:27:35.258Z,99928.31
2019-03-03T16:30:14.452Z,99928.68
2019-03-03T16:32:45.384Z,99937.62
2019-03-03T16:35:16.398Z,99931.03
2019-03-03T16:37:47.260Z,99936.77
2019-03-03T16:40:24.992Z,99939.47
2019-03-03T16:42:55.862Z,99936.83
2019-03-03T16:45:27.544Z,99939.47
2019-03-03T16:47:58.449Z,99927.53
2019-03-03T16:50:32.801Z,99920.64
2019-03-03T16:53:03.624Z,99928.59
2019-03-03T16:55:34.529Z,99933.16
2019-03-03T16:58:05.403Z,99923.06
2019-03-03T17:00:38.246Z,99921.86
2019-03-03T17:03:09.050Z,99917.11
2019-03-03T17:05:39.890Z,99909.25
2019-03-03T17:08:10.762Z,99905.78
2019-03-03T17:10:41.708Z,99907.17
2019-03-03T17:13:13.871Z,99905.93
2019-03-03T17:15:44.690Z,99898.21
2019-03-03T17:18:15.612Z,99894.26
2019-03-03T17:20:46.945Z,99885.63
2019-03-03T17:23:17.869Z,99882.62
2019-03-03T17:25:48.713Z,99880.47
2019-03-03T17:28:19.535Z,99880.92
2019-03-03T17:30:50.531Z,99877.98
2019-03-03T17:33:21.436Z,99874.41
2019-03-03T17:35:52.581Z,99868.73
2019-03-03T17:38:23.472Z,99867.52
2019-03-03T17:40:54.307Z,99867.52
2019-03-03T17:43:25.624Z,99868.45
2019-03-03T17:45:57.480Z,99860.59
2019-03-03T17:48:28.904Z,99860.13
2019-03-03T17:50:59.809Z,99865.81
2019-03-03T17:53:30.645Z,99866.27
2019-03-03T17:56:01.495Z,99855.31
2019-03-03T17:58:32.449Z,99854.34
2019-03-03T18:01:03.367Z,99846.41
2019-03-03T18:03:34.320Z,99849.64
2019-03-03T18:06:06.750Z,99846.06
2019-03-03T18:08:37.538Z,99836.40
2019-03-03T18:11:08.656Z,99837.72
2019-03-03T18:13:39.607Z,99835.98
2019-03-03T18:16:11.349Z,99836.50
2019-03-03T18:18:42.249Z,99830.71
2019-03-03T18:21:13.100Z,99833.45
2019-03-03T18:23:43.938Z,99831.38
2019-03-03T18:26:14.776Z,99830.03
2019-03-03T18:28:45.648Z,99830.48
2019-03-03T18:31:16.568Z,99831.80
2019-03-03T18:33:47.454Z,99823.89
2019-03-03T18:36:18.570Z,99825.73
2019-03-03T18:38:51.179Z,99821.44
2019-03-03T18:41:22.223Z,99824.07
2019-03-03T18:43:53.148Z,99824.52
2019-03-03T18:46:25.965Z,99810.45
2019-03-03T18:48:57.493Z,99814.47
2019-03-03T18:51:28.353Z,99805.19
2019-03-03T18:53:59.201Z,99808.66
2019-03-03T18:56:30.091Z,99802.91
2019-03-03T18:59:01.088Z,99803.87
2019-03-03T19:01:33.132Z,99786.69
2019-03-03T19:04:04.053Z,99795.08
2019-03-03T19:06:35.203Z,99785.86
2019-03-03T19:09:07.204Z,99780.08
2019-03-03T19:11:39.916Z,99775.30
2019-03-03T19:14:13.513Z,99773.53
2019-03-03T19:16:45.137Z,99762.96
2019-03-03T19:19:17.580Z,99748.03
2019-03-03T19:21:48.903Z,99753.86
2019-03-03T19:24:20.235Z,99745.55
2019-03-03T19:26:51.308Z,99749.38
2019-03-03T19:29:23.459Z,99739.27
2019-03-03T19:31:57.446Z,99742.35
2019-03-03T19:34:30.725Z,99738.93
2019-03-03T19:37:02.099Z,99731.52
2019-03-03T19:39:33.406Z,99730.62
2019-03-03T19:42:04.438Z,99728.73
2019-03-03T19:44:35.252Z,99723.92
2019-03-03T19:47:08.606Z,99718.20
2019-03-03T19:49:39.767Z,99725.69
2019-03-03T19:52:10.712Z,99713.77
2019-03-03T19:54:41.658Z,99706.28
2019-03-03T19:57:12.589Z,99712.33
2019-03-03T19:59:43.561Z,99700.77
2019-03-03T20:02:15.980Z,99712.66
2019-03-03T20:04:46.984Z,99703.78
2019-03-03T20:07:17.835Z,99702.45
2019-03-03T20:09:49.366Z,99699.30
2019-03-03T20:12:21.389Z,99701.02
2019-03-03T20:14:53.377Z,99693.45
2019-03-03T20:17:24.414Z,99696.94
2019-03-03T20:19:55.343Z,99696.00
2019-03-03T20:22:26.293Z,99687.83
2019-03-03T20:24:58.167Z,99680.79
2019-03-03T20:27:29.097Z,99672.27
2019-03-03T20:30:03.919Z,99671.25
2019-03-03T20:32:34.271Z,99664.30
2019-03-03T20:35:07.812Z,99652.63
2019-03-03T20:37:39.499Z,99648.92
2019-03-03T20:40:15.590Z,99647.42
2019-03-03T20:42:46.696Z,99637.70
2019-03-03T20:45:33.784Z,99639.72
2019-03-03T20:48:05.603Z,99643.63
2019-03-03T20:50:36.469Z,99637.73
2019-03-03T20:53:07.322Z,99644.34
2019-03-03T20:55:38.217Z,99639.78
2019-03-03T20:58:09.128Z,99641.25
2019-03-03T21:00:39.942Z,99641.71
2019-03-03T21:03:10.790Z,99631.70
2019-03-03T21:05:41.617Z,99630.45
2019-03-03T21:08:12.573Z,99620.00
2019-03-03T21:10:45.323Z,99617.77
2019-03-03T21:13:16.439Z,99612.20
2019-03-03T21:15:47.568Z,99611.17
2019-03-03T21:18:18.551Z,99610.92
2019-03-03T21:20:49.383Z,99618.08
2019-03-03T21:23:20.319Z,99602.70
2019-03-03T21:26:07.671Z,99596.42
2019-03-03T21:29:08.305Z,99595.50
2019-03-03T21:31:39.613Z,99590.11
2019-03-03T21:34:10.640Z,99590.82
2019-03-03T21:36:42.947Z,99595.25
2019-03-03T21:39:13.894Z,99593.91
2019-03-03T21:41:44.775Z,99596.05
2019-03-03T21:44:15.753Z,99589.80
2019-03-03T21:46:46.999Z,99602.08
2019-03-03T21:49:18.844Z,99582.42
2019-03-03T21:51:49.865Z,99573.81
2019-03-03T21:54:20.837Z,99563.32
2019-03-03T21:56:51.658Z,99558.66
2019-03-03T21:59:22.538Z,99558.20
2019-03-03T22:01:54.331Z,99553.89
2019-03-03T22:04:25.346Z,99549.09
2019-03-03T22:06:56.182Z,99545.52
2019-03-03T22:09:49.488Z,99539.55
2019-03-03T22:12:29.587Z,99534.40
2019-03-03T22:15:22.995Z,99536.75
2019-03-03T22:17:54.181Z,99533.78
2019-03-03T22:20:25.416Z,99531.19
2019-03-03T22:22:56.503Z,99523.28
2019-03-03T22:25:27.371Z,99525.58
2019-03-03T22:27:58.155Z,99508.71
2019-03-03T22:30:29.081Z,99512.09
2019-03-03T22:32:59.915Z,99510.33
2019-03-03T22:35:30.743Z,99490.30
2019-03-03T22:38:01.623Z,99487.90
2019-03-03T22:40:32.477Z,99484.34
2019-03-03T22:43:03.281Z,99480.51
2019-03-03T22:45:34.144Z,99477.75
2019-03-03T22:48:04.951Z,99478.59
2019-03-03T22:50:35.827Z,99478.61
2019-03-03T22:53:06.674Z,99471.94
2019-03-03T22:55:37.534Z,99478.25
2019-03-03T22:58:08.393Z,99475.62
2019-03-03T23:01:00.803Z,99468.34
2019-03-03T23:03:56.615Z,99465.40
2019-03-03T23:06:30.804Z,99469.30
2019-03-03T23:09:10.467Z,99466.39
2019-03-03T23:12:19.461Z,99461.03
2019-03-03T23:15:11.982Z,99460.37
2019-03-03T23:18:00.473Z,99448.70
2019-03-03T23:20:43.655Z,99451.08
2019-03-03T23:23:34.269Z,99451.63
2019-03-03T23:26:05.078Z,99455.48
2019-03-03T23:28:36.042Z,99438.78
2019-03-03T23:31:06.942Z,99433.37
2019-03-03T23:33:37.988Z,99429.94
2019-03-03T23:36:08.828Z,99425.64
2019-03-03T23:38:39.723Z,99425.38
2019-03-03T23:41:10.577Z,99424.78
2019-03-03T23:43:41.488Z,99418.52
2019-03-03T23:46:12.286Z,99408.06
2019-03-03T23:48:43.142Z,99406.02
2019-03-03T23:51:14.775Z,99406.96
2019-03-03T23:53:45.762Z,99410.49
2019-03-03T23:56:16.595Z,99413.91
2019-03-03T23:58:47.431Z,99413.36
